• Join FlightAware (Why Join?)
  • Login
  • US Flag 
08:39AM EDT


 

Airport Tracker/Info


-or-


 

Live Flight TrackerFlight Track Log ✈ ASQ5941 ✈ 19-Apr-2013 ✈ KAVP - KORD

Flight Track Log - Related Links

Times and Time Zones

All times are in EDT time to prevent confusion due to time zone crossing. See the ASQ5941 flight status page for this flight to view local times or setup timezone preferences in your user account.

Time Position Orientation Groundspeed Altitude Reporting Facility
EDT Latitude Longitude Course Direction KTS MPH feet Rate Location/Type
07:51PM 41.2619 -75.7750 312° West 199 229 36,000  Level New York Center
07:52PM 41.2778 -75.8425 287° West 233 268 6,700 -13,860 Descending New York Center
07:53PM 41.3751 -75.8503 304° West  Level FlightAware Approximate
07:53PM 41.3467 -75.8392 North 252 290 9,000  Level New York Center
07:54PM 41.4204 -75.9328 315° West  Level FlightAware Approximate
07:54PM 41.4406 -75.8353 North 286 329 10,800  Level New York Center
07:55PM 41.4677 -76.0180 315° West  Level FlightAware Approximate
07:55PM 41.5228 -75.8608 347° North 293 337 12,100  Level New York Center
07:56PM 41.5237 -76.0938 312° West  Level FlightAware Approximate
07:56PM 41.5975 -75.9108 333° Northwest 318 366 12,800  Level New York Center
07:57PM 41.5767 -76.1734 312° West  Level FlightAware Approximate
07:57PM 41.6303 -76.0189 292° West 296 341 14,100  Level New York Center
07:58PM 41.6642 -76.1467 290° West 326 375 15,500 1,380 Climbing New York Center
07:59PM 41.6964 -76.2658 290° West 341 392 16,800 1,380 Climbing New York Center
08:00PM 41.7303 -76.3853 291° West 347 399 18,300 1,260 Climbing New York Center
08:01PM 41.7639 -76.5106 290° West 353 406 19,400 1,080 Climbing New York Center
08:02PM 41.7994 -76.6361 291° West 353 406 20,500 1,080 Climbing New York Center
08:03PM 41.8367 -76.7647 291° West 358 412 21,600 1,080 Climbing New York Center
08:04PM 41.8697 -76.8931 289° West 363 418 22,700 1,020 Climbing New York Center
08:05PM 41.9031 -77.0103 291° West 363 418 23,700 960 Climbing New York Center
08:06PM 41.9306 -77.1136 290° West 363 418 24,500 1,140 Climbing Cleveland Center
08:07PM 41.9678 -77.2428 291° West 387 445 25,700 1,080 Climbing Cleveland Center
08:08PM 42.0028 -77.3781 289° West 387 445 26,700 1,020 Climbing Cleveland Center
08:09PM 42.0378 -77.5078 290° West 382 440 27,800 1,020 Climbing Cleveland Center
08:10PM 42.0722 -77.6375 290° West 382 440 28,800 600 Climbing Cleveland Center
08:11PM 42.1092 -77.7758 290° West 382 440 29,000 60 Climbing Cleveland Center
08:12PM 42.1481 -77.9197 290° West 398 458 29,000  Level Cleveland Center
08:13PM 42.1892 -78.0806 289° West 411 473 29,000  Level Cleveland Center
08:14PM 42.2256 -78.2250 289° West 423 487 29,000  Level Cleveland Center
08:15PM 42.2639 -78.3722 289° West 423 487 29,000  Level Cleveland Center
08:16PM 42.3067 -78.5392 289° West 423 487 29,000  Level Cleveland Center
08:17PM 42.3447 -78.6925 289° West 423 487 29,000 420 Level Cleveland Center
08:18PM 42.3847 -78.8431 290° West 423 487 29,900 660 Climbing Cleveland Center
08:19PM 42.4178 -78.9856 287° West 417 480 30,400 480 Climbing Cleveland Center
08:20PM 42.4594 -79.1367 291° West 417 480 30,900 540 Climbing Cleveland Center
08:21PM 42.4925 -79.2908 286° West 422 486 31,500 600 Climbing Cleveland Center
08:22PM 42.5003 -79.4369 274° West 411 473 32,100 600 Climbing Cleveland Center
08:23PM 42.5081 -79.5833 274° West 405 466 32,800 600 Climbing Cleveland Center
08:24PM 42.5133 -79.7269 273° West 400 460 33,400 540 Climbing Cleveland Center
08:25PM 42.5225 -79.8564 276° West 372 428 33,900 60 Climbing Cleveland Center
08:26PM 42.5272 -79.9633 273° West 363 418 33,600 -780 Descending Cleveland Center
08:27PM 42.5303 -80.1211 272° West 374 430 32,400 -1,440 Descending Cleveland Center
08:28PM 42.5347 -80.2675 272° West 385 443 30,800 -1,020 Descending Cleveland Center
08:29PM 42.5433 -80.4114 275° West 385 443 30,400 -420 Descending Cleveland Center
08:30PM 42.5478 -80.5436 273° West 374 430 30,000 -240 Descending Cleveland Center
08:31PM 42.5539 -80.6931 273° West 366 421 30,000  Level Cleveland Center
08:32PM 42.5600 -80.8283 274° West 366 421 30,000  Level Cleveland Center
08:33PM 42.5639 -80.9667 272° West 361 415 30,000  Level Cleveland Center
08:34PM 42.5675 -81.0992 272° West 366 421 30,000  Level Cleveland Center
08:35PM 42.5731 -81.2400 273° West 366 421 30,000  Level Cleveland Center
08:36PM 42.5764 -81.3756 272° West 366 421 30,000  Level Cleveland Center
08:37PM 42.5939 -81.5139 280° West 366 421 30,000  Level Cleveland Center
08:38PM 42.6178 -81.6553 283° West 376 433 30,000  Level Cleveland Center
08:39PM 42.6353 -81.7825 281° West 376 433 30,000  Level Cleveland Center
08:40PM 42.6483 -81.9156 278° West 371 427 30,000  Level Cleveland Center
08:41PM 42.6614 -82.0569 277° West 371 427 30,000  Level Cleveland Center
08:42PM 42.6761 -82.1986 278° West 371 427 30,000  Level Cleveland Center
08:43PM 42.7386 -82.3358 302° West 394 453 30,000  Level Cleveland Center
08:44PM 42.8511 -82.4664 320° Northwest 431 496 30,000  Level Cleveland Center
08:45PM 42.9450 -82.5883 316° Northwest 446 513 30,000  Level Cleveland Center
08:46PM 43.0408 -82.7022 319° Northwest 456 525 30,000  Level Cleveland Center
08:47PM 43.1347 -82.8164 318° Northwest 461 531 30,000  Level Cleveland Center
08:48PM 43.2281 -82.9367 317° Northwest 461 531 30,000  Level Cleveland Center
08:49PM 43.3069 -83.0594 311° West 452 520 30,000  Level Cleveland Center
08:50PM 43.3225 -83.2000 279° West 389 448 30,000  Level Cleveland Center
08:51PM 43.2681 -83.3061 235° Southwest 309 356 30,000  Level Cleveland Center
08:52PM 43.1892 -83.3822 215° Southwest 315 362 30,000  Level Cleveland Center
08:53PM 43.1283 -83.4764 229° Southwest 323 372 30,000  Level Cleveland Center
08:54PM 43.0981 -83.6056 252° West 346 398 30,000  Level Cleveland Center
08:55PM 43.0692 -83.7436 254° West 363 418 30,000  Level Cleveland Center
08:56PM 43.0383 -83.8756 252° West 374 430 30,000  Level Cleveland Center
08:57PM 43.0114 -84.0161 255° West 374 430 30,000  Level Cleveland Center
08:58PM 42.9781 -84.1533 252° West 374 430 30,000  Level Cleveland Center
09:00PM 42.9364 -84.3506 254° West 381 438 30,000  Level Chicago Center
09:01PM 42.9056 -84.4875 253° West 380 437 30,000  Level Chicago Center
09:02PM 42.8778 -84.6267 255° West 380 437 30,000  Level Chicago Center
09:03PM 42.8647 -84.7728 263° West 386 444 30,000  Level Chicago Center
09:04PM 42.8464 -84.9461 262° West 387 445 30,000  Level Chicago Center
09:05PM 42.8308 -85.0919 262° West 389 448 30,000  Level Chicago Center
09:06PM 42.8150 -85.2392 262° West 392 451 30,000 -120 Level Chicago Center
09:07PM 42.7994 -85.3853 262° West 390 449 29,800 -840 Descending Chicago Center
09:08PM 42.7811 -85.5294 260° West 386 444 28,300 -1,620 Descending Chicago Center
09:09PM 42.7553 -85.6758 257° West 393 452 26,500 -1,860 Descending Chicago Center
09:10PM 42.7283 -85.8200 256° West 393 452 24,500 -2,040 Descending Chicago Center
09:11PM 42.7028 -85.9617 256° West 386 444 22,400 -1,980 Descending Chicago Center
09:12PM 42.6714 -86.1325 256° West 380 437 20,500 -1,200 Descending Chicago Center
09:13PM 42.6467 -86.2675 256° West 377 434 20,000 -660 Descending Chicago Center
09:14PM 42.6211 -86.4033 256° West 371 427 19,200 -1,560 Descending Chicago Center
09:15PM 42.5961 -86.5356 256° West 364 419 16,900 -2,280 Descending Chicago Center
09:16PM 42.5708 -86.6647 255° West 356 410 14,600 -2,100 Descending Chicago Center
09:17PM 42.5444 -86.7897 254° West 347 399 12,600 -1,620 Descending Chicago Center
09:18PM 42.5122 -86.9031 249° West 325 374 11,300 -1,080 Descending Chicago Center
09:19PM 42.4850 -87.0075 251° West 298 343 10,400 -840 Descending Chicago Center
09:20PM 42.4547 -87.1119 249° West 252 290 9,600 -960 Descending Chicago Center
09:21PM 42.4306 -87.1969 249° West 245 282 8,500 -1,080 Descending Chicago Center
09:22PM 42.3958 -87.2703 237° Southwest 240 276 7,500 -1,020 Descending Chicago Center
09:23PM 42.3272 -87.3019 199° South 255 293 6,500 -840 Descending Chicago Center
09:24PM 42.2519 -87.3381 200° South 254 292 5,800 -660 Descending Chicago Center
09:25PM 42.1844 -87.3728 201° Southwest 258 297 5,200 -600 Descending Chicago Center
09:26PM 42.1217 -87.4067 202° Southwest 249 287 4,600 -600 Descending Chicago Center
09:27PM 42.0667 -87.4333 200° South 254 292 4,200 -360 Descending Chicago TRACON
09:28PM 42.0167 -87.4667 206° Southwest 221 254 4,000 -120 Descending Chicago TRACON
09:29PM 42.0000 -87.5333 251° West 183 211 4,000  Level Chicago TRACON
09:30PM 42.0000 -87.6000 270° West 160 184 4,000  Level Chicago TRACON
09:31PM 42.0000 -87.6667 270° West 160 184 4,000 -360 Level Chicago TRACON
09:32PM 42.0000 -87.7333 270° West 158 182 3,300 -660 Descending Chicago TRACON